Terminal Aerodrome Forecast
Issued by NWS Atlanta, GA

Home | Current Version | Previous Version | Text Only | Print | Product List | Glossary On
Versions: 1 2 3 4 5 6 7 8 9 10 11 12 13 14 15 16 17 18 19 20 21 22 23 24 25 26
109
FTUS42 KFFC 241336 AAA
TAFCSG
TAF AMD
KCSG 241336Z 2414/2512 11003KT P6SM SKC
     FM241600 17007KT P6SM SCT040
     FM250000 17004KT P6SM SCT060
     FM251000 26006KT P6SM BKN025 PROB30 2510/2512 5SM -SHRA BR
      BKN015=

USA.gov is the U.S. government's official web portal to all federal, state and local government web resources and services.